sensor_id;sensor_type;location;lat;lon;timestamp;pressure;altitude;pressure_sealevel;temperature;humidity
19676;BME280;39539;52.202;9.876;2022-07-23T00:00:30;101065.19;;;15.44;100.00
19676;BME280;39539;52.202;9.876;2022-07-23T00:02:56;101065.56;;;15.47;100.00
19676;BME280;39539;52.202;9.876;2022-07-23T00:05:21;101052.41;;;15.46;100.00
19676;BME280;39539;52.202;9.876;2022-07-23T00:07:47;101061.28;;;15.58;100.00
19676;BME280;39539;52.202;9.876;2022-07-23T00:10:13;101055.31;;;15.56;100.00
19676;BME280;39539;52.202;9.876;2022-07-23T00:12:39;101053.91;;;15.54;100.00
19676;BME280;39539;52.202;9.876;2022-07-23T00:15:06;101066.75;;;15.63;100.00
19676;BME280;39539;52.202;9.876;2022-07-23T00:17:32;101050.09;;;15.61;100.00
19676;BME280;39539;52.202;9.876;2022-07-23T00:19:57;101054.97;;;15.64;100.00
19676;BME280;39539;52.202;9.876;2022-07-23T00:22:22;101046.94;;;15.64;100.00
19676;BME280;39539;52.202;9.876;2022-07-23T00:24:48;101037.47;;;15.50;100.00
19676;BME280;39539;52.202;9.876;2022-07-23T00:27:13;101038.16;;;15.45;100.00
19676;BME280;39539;52.202;9.876;2022-07-23T00:29:39;101043.31;;;15.47;100.00
19676;BME280;39539;52.202;9.876;2022-07-23T00:32:04;101058.09;;;15.49;100.00
19676;BME280;39539;52.202;9.876;2022-07-23T00:34:30;101059.72;;;15.50;100.00
19676;BME280;39539;52.202;9.876;2022-07-23T00:36:55;101057.28;;;15.49;100.00
19676;BME280;39539;52.202;9.876;2022-07-23T00:39:21;101047.59;;;15.48;100.00
19676;BME280;39539;52.202;9.876;2022-07-23T00:41:48;101038.88;;;15.41;100.00
19676;BME280;39539;52.202;9.876;2022-07-23T00:44:25;101040.16;;;15.38;100.00
19676;BME280;39539;52.202;9.876;2022-07-23T00:46:56;101054.66;;;15.31;100.00
19676;BME280;39539;52.202;9.876;2022-07-23T00:49:23;101051.28;;;15.23;100.00
19676;BME280;39539;52.202;9.876;2022-07-23T00:51:49;101034.81;;;15.08;100.00
19676;BME280;39539;52.202;9.876;2022-07-23T00:54:19;101042.28;;;15.06;100.00
19676;BME280;39539;52.202;9.876;2022-07-23T00:56:45;101056.97;;;15.15;100.00
19676;BME280;39539;52.202;9.876;2022-07-23T00:59:11;101062.03;;;15.05;100.00
19676;BME280;39539;52.202;9.876;2022-07-23T01:01:37;101061.69;;;15.01;100.00
19676;BME280;39539;52.202;9.876;2022-07-23T01:04:02;101055.88;;;15.04;100.00
19676;BME280;39539;52.202;9.876;2022-07-23T01:06:28;101060.31;;;15.11;100.00
19676;BME280;39539;52.202;9.876;2022-07-23T01:08:54;101065.78;;;15.04;100.00
19676;BME280;39539;52.202;9.876;2022-07-23T01:11:22;101050.72;;;15.03;100.00
19676;BME280;39539;52.202;9.876;2022-07-23T01:13:48;101051.06;;;14.95;100.00
19676;BME280;39539;52.202;9.876;2022-07-23T01:16:14;101046.44;;;15.02;100.00
19676;BME280;39539;52.202;9.876;2022-07-23T01:18:39;101029.06;;;14.93;100.00
19676;BME280;39539;52.202;9.876;2022-07-23T01:21:05;101027.19;;;14.93;100.00
19676;BME280;39539;52.202;9.876;2022-07-23T01:23:31;101018.38;;;14.74;100.00
19676;BME280;39539;52.202;9.876;2022-07-23T01:25:56;101020.09;;;14.69;100.00
19676;BME280;39539;52.202;9.876;2022-07-23T01:28:21;101014.63;;;14.64;100.00
19676;BME280;39539;52.202;9.876;2022-07-23T01:30:48;101012.28;;;14.49;100.00
19676;BME280;39539;52.202;9.876;2022-07-23T01:33:14;101004.03;;;14.32;100.00
19676;BME280;39539;52.202;9.876;2022-07-23T01:35:40;101004.72;;;14.27;100.00
19676;BME280;39539;52.202;9.876;2022-07-23T01:38:05;101000.28;;;14.21;100.00
19676;BME280;39539;52.202;9.876;2022-07-23T01:40:31;101001.13;;;14.15;100.00
19676;BME280;39539;52.202;9.876;2022-07-23T01:42:57;101013.16;;;14.06;100.00
19676;BME280;39539;52.202;9.876;2022-07-23T01:45:22;101013.63;;;14.03;100.00
19676;BME280;39539;52.202;9.876;2022-07-23T01:47:48;101010.34;;;14.01;100.00
19676;BME280;39539;52.202;9.876;2022-07-23T01:50:13;101017.06;;;14.10;100.00
19676;BME280;39539;52.202;9.876;2022-07-23T01:52:39;101006.03;;;14.00;100.00
19676;BME280;39539;52.202;9.876;2022-07-23T01:55:05;101001.06;;;14.03;100.00
19676;BME280;39539;52.202;9.876;2022-07-23T01:57:31;100992.34;;;13.89;100.00
19676;BME280;39539;52.202;9.876;2022-07-23T01:59:56;101019.84;;;13.97;100.00
19676;BME280;39539;52.202;9.876;2022-07-23T02:02:21;101011.47;;;13.93;100.00
19676;BME280;39539;52.202;9.876;2022-07-23T02:04:47;101014.63;;;13.83;100.00
19676;BME280;39539;52.202;9.876;2022-07-23T02:07:12;101003.75;;;13.78;100.00
19676;BME280;39539;52.202;9.876;2022-07-23T02:09:38;101020.94;;;13.89;100.00
19676;BME280;39539;52.202;9.876;2022-07-23T02:12:03;101026.81;;;13.98;100.00
19676;BME280;39539;52.202;9.876;2022-07-23T02:14:29;101024.53;;;14.01;100.00
19676;BME280;39539;52.202;9.876;2022-07-23T02:16:54;101026.09;;;14.09;100.00
19676;BME280;39539;52.202;9.876;2022-07-23T02:19:20;101009.88;;;14.04;100.00
19676;BME280;39539;52.202;9.876;2022-07-23T02:21:45;101001.38;;;14.13;100.00
19676;BME280;39539;52.202;9.876;2022-07-23T02:24:11;101013.66;;;14.21;100.00
19676;BME280;39539;52.202;9.876;2022-07-23T02:26:36;101016.16;;;14.16;100.00
19676;BME280;39539;52.202;9.876;2022-07-23T02:29:02;101018.31;;;14.26;100.00
19676;BME280;39539;52.202;9.876;2022-07-23T02:31:29;101014.91;;;14.19;100.00
19676;BME280;39539;52.202;9.876;2022-07-23T02:33:54;101026.47;;;14.31;100.00
19676;BME280;39539;52.202;9.876;2022-07-23T02:36:20;101026.03;;;14.34;100.00
19676;BME280;39539;52.202;9.876;2022-07-23T02:38:45;101010.72;;;14.23;100.00
19676;BME280;39539;52.202;9.876;2022-07-23T02:41:11;101043.94;;;14.33;100.00
19676;BME280;39539;52.202;9.876;2022-07-23T02:43:36;101046.16;;;14.36;100.00
19676;BME280;39539;52.202;9.876;2022-07-23T02:46:01;101037.69;;;14.40;100.00
19676;BME280;39539;52.202;9.876;2022-07-23T02:48:27;101039.56;;;14.39;100.00
19676;BME280;39539;52.202;9.876;2022-07-23T02:50:52;101028.63;;;14.41;100.00
19676;BME280;39539;52.202;9.876;2022-07-23T02:53:18;101021.19;;;14.43;100.00
19676;BME280;39539;52.202;9.876;2022-07-23T02:55:43;101027.06;;;14.51;100.00
19676;BME280;39539;52.202;9.876;2022-07-23T02:58:08;101029.13;;;14.56;100.00
19676;BME280;39539;52.202;9.876;2022-07-23T03:00:34;101014.94;;;14.55;100.00
19676;BME280;39539;52.202;9.876;2022-07-23T03:02:59;101008.97;;;14.53;100.00
19676;BME280;39539;52.202;9.876;2022-07-23T03:05:25;101011.19;;;14.56;100.00
19676;BME280;39539;52.202;9.876;2022-07-23T03:07:50;101004.59;;;14.59;100.00
19676;BME280;39539;52.202;9.876;2022-07-23T03:10:15;101012.75;;;14.64;100.00
19676;BME280;39539;52.202;9.876;2022-07-23T03:12:41;101007.63;;;14.63;100.00
19676;BME280;39539;52.202;9.876;2022-07-23T03:15:07;101019.28;;;14.68;100.00
19676;BME280;39539;52.202;9.876;2022-07-23T03:17:32;101018.81;;;14.71;100.00
19676;BME280;39539;52.202;9.876;2022-07-23T03:19:58;100995.78;;;14.70;100.00
19676;BME280;39539;52.202;9.876;2022-07-23T03:22:23;100998.63;;;14.75;100.00
19676;BME280;39539;52.202;9.876;2022-07-23T03:24:49;101003.19;;;14.87;100.00
19676;BME280;39539;52.202;9.876;2022-07-23T03:27:21;101010.53;;;14.91;100.00
19676;BME280;39539;52.202;9.876;2022-07-23T03:29:46;100991.91;;;14.85;100.00
19676;BME280;39539;52.202;9.876;2022-07-23T03:32:12;100988.75;;;14.88;100.00
19676;BME280;39539;52.202;9.876;2022-07-23T03:34:37;100996.03;;;14.99;100.00
19676;BME280;39539;52.202;9.876;2022-07-23T03:37:03;100988.13;;;15.04;100.00
19676;BME280;39539;52.202;9.876;2022-07-23T03:39:28;100991.97;;;15.08;100.00
19676;BME280;39539;52.202;9.876;2022-07-23T03:41:53;100993.81;;;14.96;100.00
19676;BME280;39539;52.202;9.876;2022-07-23T03:44:19;100997.78;;;15.05;100.00
19676;BME280;39539;52.202;9.876;2022-07-23T03:46:44;100978.91;;;15.00;100.00
19676;BME280;39539;52.202;9.876;2022-07-23T03:49:10;100983.78;;;15.03;100.00
19676;BME280;39539;52.202;9.876;2022-07-23T03:51:35;100977.63;;;15.02;100.00
19676;BME280;39539;52.202;9.876;2022-07-23T03:54:00;100969.25;;;14.99;100.00
19676;BME280;39539;52.202;9.876;2022-07-23T03:56:26;100989.75;;;15.05;100.00
19676;BME280;39539;52.202;9.876;2022-07-23T03:58:51;100987.53;;;15.02;100.00
19676;BME280;39539;52.202;9.876;2022-07-23T04:01:17;100997.53;;;14.95;100.00
19676;BME280;39539;52.202;9.876;2022-07-23T04:03:42;100999.28;;;15.01;100.00
19676;BME280;39539;52.202;9.876;2022-07-23T04:06:08;100998.25;;;15.02;100.00
19676;BME280;39539;52.202;9.876;2022-07-23T04:08:33;100990.78;;;14.92;100.00
19676;BME280;39539;52.202;9.876;2022-07-23T04:10:58;100995.66;;;14.95;100.00
19676;BME280;39539;52.202;9.876;2022-07-23T04:13:24;100989.25;;;14.96;100.00
19676;BME280;39539;52.202;9.876;2022-07-23T04:15:50;100985.09;;;15.00;100.00
19676;BME280;39539;52.202;9.876;2022-07-23T04:18:16;100979.50;;;15.02;100.00
19676;BME280;39539;52.202;9.876;2022-07-23T04:20:47;100989.66;;;15.12;100.00
19676;BME280;39539;52.202;9.876;2022-07-23T04:23:12;100988.16;;;15.16;100.00
19676;BME280;39539;52.202;9.876;2022-07-23T04:25:37;100996.66;;;15.24;100.00
19676;BME280;39539;52.202;9.876;2022-07-23T04:28:03;100978.41;;;15.33;100.00
19676;BME280;39539;52.202;9.876;2022-07-23T04:30:29;100979.69;;;15.31;100.00
19676;BME280;39539;52.202;9.876;2022-07-23T04:32:54;100979.94;;;15.41;100.00
19676;BME280;39539;52.202;9.876;2022-07-23T04:35:20;100980.03;;;15.34;100.00
19676;BME280;39539;52.202;9.876;2022-07-23T04:37:45;101001.97;;;15.43;100.00
19676;BME280;39539;52.202;9.876;2022-07-23T04:40:11;101022.59;;;15.54;100.00
19676;BME280;39539;52.202;9.876;2022-07-23T04:42:37;101011.41;;;15.57;100.00
19676;BME280;39539;52.202;9.876;2022-07-23T04:45:03;101003.94;;;15.59;100.00
19676;BME280;39539;52.202;9.876;2022-07-23T04:47:29;101003.25;;;15.52;100.00
19676;BME280;39539;52.202;9.876;2022-07-23T04:49:54;101024.34;;;15.60;100.00
19676;BME280;39539;52.202;9.876;2022-07-23T04:52:20;101003.72;;;15.49;100.00
19676;BME280;39539;52.202;9.876;2022-07-23T04:54:45;101009.28;;;15.59;100.00
19676;BME280;39539;52.202;9.876;2022-07-23T04:57:12;101010.81;;;15.55;100.00
19676;BME280;39539;52.202;9.876;2022-07-23T04:59:37;101017.25;;;15.54;100.00
19676;BME280;39539;52.202;9.876;2022-07-23T05:02:02;101020.81;;;15.48;100.00
19676;BME280;39539;52.202;9.876;2022-07-23T05:04:28;101019.06;;;15.42;100.00
19676;BME280;39539;52.202;9.876;2022-07-23T05:06:53;101024.53;;;15.35;100.00
19676;BME280;39539;52.202;9.876;2022-07-23T05:09:20;101013.78;;;15.23;100.00
19676;BME280;39539;52.202;9.876;2022-07-23T05:11:45;101014.38;;;15.25;100.00
19676;BME280;39539;52.202;9.876;2022-07-23T05:14:11;101015.16;;;15.14;100.00
19676;BME280;39539;52.202;9.876;2022-07-23T05:16:38;101006.16;;;15.09;100.00
19676;BME280;39539;52.202;9.876;2022-07-23T05:19:03;100990.94;;;15.09;100.00
19676;BME280;39539;52.202;9.876;2022-07-23T05:21:29;100993.28;;;15.17;100.00
19676;BME280;39539;52.202;9.876;2022-07-23T05:23:54;101023.00;;;15.39;100.00
19676;BME280;39539;52.202;9.876;2022-07-23T05:26:20;101010.69;;;15.50;100.00
19676;BME280;39539;52.202;9.876;2022-07-23T05:28:45;101010.72;;;15.74;100.00
19676;BME280;39539;52.202;9.876;2022-07-23T05:31:10;101007.81;;;16.10;100.00
19676;BME280;39539;52.202;9.876;2022-07-23T05:33:36;101009.75;;;16.50;100.00
19676;BME280;39539;52.202;9.876;2022-07-23T05:36:03;101006.47;;;16.89;100.00
19676;BME280;39539;52.202;9.876;2022-07-23T05:38:29;100993.81;;;17.18;100.00
19676;BME280;39539;52.202;9.876;2022-07-23T05:40:55;101005.38;;;17.69;100.00
19676;BME280;39539;52.202;9.876;2022-07-23T05:43:21;101017.28;;;18.07;100.00
19676;BME280;39539;52.202;9.876;2022-07-23T05:45:46;100994.63;;;18.25;100.00
19676;BME280;39539;52.202;9.876;2022-07-23T05:48:13;100993.13;;;18.56;100.00
19676;BME280;39539;52.202;9.876;2022-07-23T05:50:38;101003.09;;;18.77;100.00
19676;BME280;39539;52.202;9.876;2022-07-23T05:53:04;101000.09;;;19.01;100.00
19676;BME280;39539;52.202;9.876;2022-07-23T05:55:29;100991.25;;;19.05;95.61
19676;BME280;39539;52.202;9.876;2022-07-23T05:57:57;100991.34;;;19.16;96.36
19676;BME280;39539;52.202;9.876;2022-07-23T06:00:23;100984.31;;;19.15;96.69
19676;BME280;39539;52.202;9.876;2022-07-23T06:02:49;100988.50;;;19.33;96.80
19676;BME280;39539;52.202;9.876;2022-07-23T06:05:14;100979.47;;;19.49;98.05
19676;BME280;39539;52.202;9.876;2022-07-23T06:07:40;100975.13;;;19.80;96.47
19676;BME280;39539;52.202;9.876;2022-07-23T06:10:06;100992.97;;;20.49;94.76
19676;BME280;39539;52.202;9.876;2022-07-23T06:12:32;100974.78;;;21.53;86.89
19676;BME280;39539;52.202;9.876;2022-07-23T06:14:57;100971.53;;;22.92;76.60
19676;BME280;39539;52.202;9.876;2022-07-23T06:17:23;100979.09;;;24.78;69.09
19676;BME280;39539;52.202;9.876;2022-07-23T06:19:48;100976.72;;;27.25;58.09
19676;BME280;39539;52.202;9.876;2022-07-23T06:22:13;100966.78;;;29.66;51.72
19676;BME280;39539;52.202;9.876;2022-07-23T06:24:39;100960.50;;;31.79;46.91
19676;BME280;39539;52.202;9.876;2022-07-23T06:27:05;100945.31;;;33.30;43.14
19676;BME280;39539;52.202;9.876;2022-07-23T06:29:30;100955.63;;;34.32;40.35
19676;BME280;39539;52.202;9.876;2022-07-23T06:31:55;100960.59;;;35.24;39.21
19676;BME280;39539;52.202;9.876;2022-07-23T06:34:21;100957.25;;;36.07;38.21
19676;BME280;39539;52.202;9.876;2022-07-23T06:36:46;100968.06;;;36.79;36.43
19676;BME280;39539;52.202;9.876;2022-07-23T06:39:12;100966.81;;;37.11;36.58
19676;BME280;39539;52.202;9.876;2022-07-23T06:41:37;100966.88;;;37.59;35.76
19676;BME280;39539;52.202;9.876;2022-07-23T06:44:03;100975.91;;;37.96;34.98
19676;BME280;39539;52.202;9.876;2022-07-23T06:46:28;100975.00;;;38.48;34.58
19676;BME280;39539;52.202;9.876;2022-07-23T06:48:54;100966.75;;;38.76;33.49
19676;BME280;39539;52.202;9.876;2022-07-23T06:51:19;100959.63;;;38.79;32.79
19676;BME280;39539;52.202;9.876;2022-07-23T06:53:44;100966.88;;;39.62;32.37
19676;BME280;39539;52.202;9.876;2022-07-23T06:56:10;100957.75;;;39.47;32.19
19676;BME280;39539;52.202;9.876;2022-07-23T06:58:35;100951.38;;;39.61;31.76
19676;BME280;39539;52.202;9.876;2022-07-23T07:01:01;100958.50;;;39.98;31.74
19676;BME280;39539;52.202;9.876;2022-07-23T07:03:26;100952.06;;;40.23;31.02
19676;BME280;39539;52.202;9.876;2022-07-23T07:05:52;100958.03;;;40.25;31.35
19676;BME280;39539;52.202;9.876;2022-07-23T07:08:18;100942.72;;;40.65;31.25
19676;BME280;39539;52.202;9.876;2022-07-23T07:10:43;100954.84;;;40.30;30.79
19676;BME280;39539;52.202;9.876;2022-07-23T07:13:09;100953.94;;;40.54;30.38
19676;BME280;39539;52.202;9.876;2022-07-23T07:15:34;100963.34;;;40.86;30.18
19676;BME280;39539;52.202;9.876;2022-07-23T07:18:00;100956.41;;;40.38;29.88
19676;BME280;39539;52.202;9.876;2022-07-23T07:20:25;100960.84;;;40.98;29.95
19676;BME280;39539;52.202;9.876;2022-07-23T07:22:50;100951.66;;;41.09;30.44
19676;BME280;39539;52.202;9.876;2022-07-23T07:25:16;100953.41;;;41.33;29.19
19676;BME280;39539;52.202;9.876;2022-07-23T07:27:41;100951.69;;;41.95;28.92
19676;BME280;39539;52.202;9.876;2022-07-23T07:30:09;100960.84;;;41.95;28.92
19676;BME280;39539;52.202;9.876;2022-07-23T07:32:35;100950.16;;;39.19;29.93
19676;BME280;39539;52.202;9.876;2022-07-23T07:35:03;100957.97;;;37.39;33.21
19676;BME280;39539;52.202;9.876;2022-07-23T07:37:28;100970.88;;;38.16;32.62
19676;BME280;39539;52.202;9.876;2022-07-23T07:39:54;100972.06;;;39.42;31.09
19676;BME280;39539;52.202;9.876;2022-07-23T07:42:20;100971.97;;;40.17;29.72
19676;BME280;39539;52.202;9.876;2022-07-23T07:44:45;100959.72;;;39.50;29.71
19676;BME280;39539;52.202;9.876;2022-07-23T07:47:10;100954.88;;;37.99;31.85
19676;BME280;39539;52.202;9.876;2022-07-23T07:49:36;100972.47;;;39.34;31.01
19676;BME280;39539;52.202;9.876;2022-07-23T07:52:02;100978.38;;;41.02;29.47
19676;BME280;39539;52.202;9.876;2022-07-23T07:54:28;100970.03;;;41.55;28.73
19676;BME280;39539;52.202;9.876;2022-07-23T07:56:53;100972.28;;;41.67;27.64
19676;BME280;39539;52.202;9.876;2022-07-23T07:59:18;100965.16;;;41.62;27.43
19676;BME280;39539;52.202;9.876;2022-07-23T08:01:44;100965.25;;;41.97;27.75
19676;BME280;39539;52.202;9.876;2022-07-23T08:04:09;100959.63;;;41.55;27.87
19676;BME280;39539;52.202;9.876;2022-07-23T08:06:35;100967.16;;;42.03;27.60
19676;BME280;39539;52.202;9.876;2022-07-23T08:09:00;100972.91;;;41.85;27.39
19676;BME280;39539;52.202;9.876;2022-07-23T08:11:25;100980.75;;;41.60;28.02
19676;BME280;39539;52.202;9.876;2022-07-23T08:13:51;100973.69;;;41.48;28.09
19676;BME280;39539;52.202;9.876;2022-07-23T08:16:16;100989.16;;;41.98;27.60
19676;BME280;39539;52.202;9.876;2022-07-23T08:18:42;100967.09;;;41.20;27.71
19676;BME280;39539;52.202;9.876;2022-07-23T08:21:07;100971.75;;;41.83;27.59
19676;BME280;39539;52.202;9.876;2022-07-23T08:23:33;100986.28;;;41.15;27.75
19676;BME280;39539;52.202;9.876;2022-07-23T08:25:59;100966.88;;;41.45;27.56
19676;BME280;39539;52.202;9.876;2022-07-23T08:28:26;100984.19;;;38.62;29.33
19676;BME280;39539;52.202;9.876;2022-07-23T08:30:52;100980.28;;;38.05;31.53
19676;BME280;39539;52.202;9.876;2022-07-23T08:33:18;100993.50;;;38.22;30.07
19676;BME280;39539;52.202;9.876;2022-07-23T08:35:46;101003.84;;;39.31;30.04
19676;BME280;39539;52.202;9.876;2022-07-23T08:38:14;100993.13;;;39.33;29.41
19676;BME280;39539;52.202;9.876;2022-07-23T08:40:42;100999.72;;;38.01;30.94
19676;BME280;39539;52.202;9.876;2022-07-23T08:43:09;101014.56;;;37.30;31.79
19676;BME280;39539;52.202;9.876;2022-07-23T08:45:41;101009.28;;;35.28;34.40
19676;BME280;39539;52.202;9.876;2022-07-23T08:48:08;101012.69;;;34.09;35.82
19676;BME280;39539;52.202;9.876;2022-07-23T08:50:35;101016.25;;;33.34;36.58
19676;BME280;39539;52.202;9.876;2022-07-23T08:53:02;101001.78;;;32.80;36.99
19676;BME280;39539;52.202;9.876;2022-07-23T08:55:30;101007.75;;;33.54;36.04
19676;BME280;39539;52.202;9.876;2022-07-23T08:57:55;101003.81;;;33.40;37.05
19676;BME280;39539;52.202;9.876;2022-07-23T09:00:22;101011.69;;;35.53;35.15
19676;BME280;39539;52.202;9.876;2022-07-23T09:02:50;101006.88;;;37.17;31.57
19676;BME280;39539;52.202;9.876;2022-07-23T09:05:16;100989.13;;;39.19;30.80
19676;BME280;39539;52.202;9.876;2022-07-23T09:08:05;100989.97;;;39.41;30.03
19676;BME280;39539;52.202;9.876;2022-07-23T09:13:36;100990.03;;;36.95;32.20
19676;BME280;39539;52.202;9.876;2022-07-23T09:16:06;100995.88;;;37.24;31.46
19676;BME280;39539;52.202;9.876;2022-07-23T09:18:50;100981.31;;;37.34;31.58
19676;BME280;39539;52.202;9.876;2022-07-23T09:21:25;100987.72;;;35.61;32.84
19676;BME280;39539;52.202;9.876;2022-07-23T09:26:32;101008.44;;;35.05;33.41
19676;BME280;39539;52.202;9.876;2022-07-23T09:29:05;101006.03;;;35.46;33.12
19676;BME280;39539;52.202;9.876;2022-07-23T09:31:52;101004.94;;;37.58;32.51
19676;BME280;39539;52.202;9.876;2022-07-23T09:34:32;100998.28;;;39.31;30.38
19676;BME280;39539;52.202;9.876;2022-07-23T09:37:13;100980.59;;;38.58;29.99
19676;BME280;39539;52.202;9.876;2022-07-23T09:39:40;100967.25;;;35.19;32.62
19676;BME280;39539;52.202;9.876;2022-07-23T09:42:14;101007.78;;;33.86;35.16
19676;BME280;39539;52.202;9.876;2022-07-23T09:44:47;101017.53;;;36.20;33.46
19676;BME280;39539;52.202;9.876;2022-07-23T09:47:13;101005.97;;;37.91;31.89
19676;BME280;39539;52.202;9.876;2022-07-23T09:49:38;100992.03;;;37.84;31.18
19676;BME280;39539;52.202;9.876;2022-07-23T09:52:04;100996.69;;;37.28;31.67
19676;BME280;39539;52.202;9.876;2022-07-23T09:54:34;100984.13;;;35.14;32.76
19676;BME280;39539;52.202;9.876;2022-07-23T09:57:11;100993.16;;;32.54;35.76
19676;BME280;39539;52.202;9.876;2022-07-23T09:59:41;101007.19;;;31.42;39.33
19676;BME280;39539;52.202;9.876;2022-07-23T10:02:08;100999.38;;;33.35;36.88
19676;BME280;39539;52.202;9.876;2022-07-23T10:04:34;101001.56;;;34.99;34.68
19676;BME280;39539;52.202;9.876;2022-07-23T10:07:02;100993.69;;;36.69;32.45
19676;BME280;39539;52.202;9.876;2022-07-23T10:09:34;100993.09;;;38.20;31.48
19676;BME280;39539;52.202;9.876;2022-07-23T10:12:03;100964.44;;;37.53;31.05
19676;BME280;39539;52.202;9.876;2022-07-23T10:14:49;100979.00;;;37.91;31.45
19676;BME280;39539;52.202;9.876;2022-07-23T10:17:16;100974.78;;;38.96;29.98
19676;BME280;39539;52.202;9.876;2022-07-23T10:19:42;100978.03;;;39.48;29.80
19676;BME280;39539;52.202;9.876;2022-07-23T10:22:10;100975.22;;;39.37;29.29
19676;BME280;39539;52.202;9.876;2022-07-23T10:33:09;100985.09;;;37.56;31.03
19676;BME280;39539;52.202;9.876;2022-07-23T10:38:30;100976.69;;;35.41;33.18
19676;BME280;39539;52.202;9.876;2022-07-23T10:41:01;101004.88;;;34.30;34.72
19676;BME280;39539;52.202;9.876;2022-07-23T10:43:28;101011.00;;;33.13;35.88
19676;BME280;39539;52.202;9.876;2022-07-23T10:45:54;100998.47;;;30.94;37.11
19676;BME280;39539;52.202;9.876;2022-07-23T10:48:24;101015.44;;;31.08;39.71
19676;BME280;39539;52.202;9.876;2022-07-23T10:51:10;101006.81;;;31.31;39.40
19676;BME280;39539;52.202;9.876;2022-07-23T10:56:17;100999.09;;;30.91;38.73
19676;BME280;39539;52.202;9.876;2022-07-23T10:58:50;101000.59;;;30.47;40.15
19676;BME280;39539;52.202;9.876;2022-07-23T11:01:35;100988.78;;;30.25;40.19
19676;BME280;39539;52.202;9.876;2022-07-23T11:04:01;100996.69;;;29.88;40.82
19676;BME280;39539;52.202;9.876;2022-07-23T11:09:32;100994.59;;;29.29;43.69
19676;BME280;39539;52.202;9.876;2022-07-23T11:15:13;101004.84;;;30.35;40.77
19676;BME280;39539;52.202;9.876;2022-07-23T11:22:47;100997.69;;;29.19;42.33
19676;BME280;39539;52.202;9.876;2022-07-23T11:27:49;100982.53;;;28.87;42.84
19676;BME280;39539;52.202;9.876;2022-07-23T11:35:38;100994.91;;;27.61;45.46
19676;BME280;39539;52.202;9.876;2022-07-23T11:38:19;100992.47;;;27.60;45.48
19676;BME280;39539;52.202;9.876;2022-07-23T11:40:46;100998.28;;;27.58;44.71
19676;BME280;39539;52.202;9.876;2022-07-23T11:43:13;100997.84;;;27.42;45.54
19676;BME280;39539;52.202;9.876;2022-07-23T11:45:41;100982.34;;;26.84;46.42
19676;BME280;39539;52.202;9.876;2022-07-23T11:48:15;100994.91;;;26.71;47.24
19676;BME280;39539;52.202;9.876;2022-07-23T11:50:41;100998.00;;;26.56;48.02
19676;BME280;39539;52.202;9.876;2022-07-23T11:53:06;100992.53;;;26.56;47.11
19676;BME280;39539;52.202;9.876;2022-07-23T11:55:32;100985.13;;;26.93;46.03
19676;BME280;39539;52.202;9.876;2022-07-23T11:57:57;100988.31;;;27.31;46.71
19676;BME280;39539;52.202;9.876;2022-07-23T12:00:25;100982.16;;;27.79;46.00
19676;BME280;39539;52.202;9.876;2022-07-23T12:02:52;100982.72;;;27.67;44.76
19676;BME280;39539;52.202;9.876;2022-07-23T12:05:26;100990.41;;;27.65;46.38
19676;BME280;39539;52.202;9.876;2022-07-23T12:07:53;100994.53;;;27.54;46.07
19676;BME280;39539;52.202;9.876;2022-07-23T12:12:47;100980.78;;;27.99;45.61
19676;BME280;39539;52.202;9.876;2022-07-23T12:15:15;100989.88;;;28.26;45.39
19676;BME280;39539;52.202;9.876;2022-07-23T12:17:43;100990.69;;;28.35;44.02
19676;BME280;39539;52.202;9.876;2022-07-23T12:20:13;100975.00;;;28.01;44.84
19676;BME280;39539;52.202;9.876;2022-07-23T12:22:47;100970.25;;;27.44;44.46
19676;BME280;39539;52.202;9.876;2022-07-23T12:25:19;100977.56;;;26.90;45.03
19676;BME280;39539;52.202;9.876;2022-07-23T12:27:45;100984.25;;;26.83;45.93
19676;BME280;39539;52.202;9.876;2022-07-23T12:30:19;100982.81;;;26.50;46.73
19676;BME280;39539;52.202;9.876;2022-07-23T12:32:46;100989.09;;;26.64;47.81
19676;BME280;39539;52.202;9.876;2022-07-23T12:35:12;100989.41;;;26.85;47.39
19676;BME280;39539;52.202;9.876;2022-07-23T12:37:40;100988.97;;;26.92;47.27
19676;BME280;39539;52.202;9.876;2022-07-23T12:40:20;100996.31;;;27.05;46.23
19676;BME280;39539;52.202;9.876;2022-07-23T12:42:48;100989.91;;;26.37;46.27
19676;BME280;39539;52.202;9.876;2022-07-23T12:45:13;100969.34;;;26.03;46.51
19676;BME280;39539;52.202;9.876;2022-07-23T12:48:03;100997.47;;;26.54;47.75
19676;BME280;39539;52.202;9.876;2022-07-23T12:50:58;101012.59;;;26.74;47.96
19676;BME280;39539;52.202;9.876;2022-07-23T12:53:29;101000.28;;;26.99;47.53
19676;BME280;39539;52.202;9.876;2022-07-23T12:56:06;101003.06;;;27.07;45.88
19676;BME280;39539;52.202;9.876;2022-07-23T13:04:08;100993.22;;;26.98;45.75
19676;BME280;39539;52.202;9.876;2022-07-23T13:06:38;100987.44;;;26.99;46.55
19676;BME280;39539;52.202;9.876;2022-07-23T13:09:06;101001.13;;;26.85;46.24
19676;BME280;39539;52.202;9.876;2022-07-23T13:11:32;101001.00;;;26.91;46.52
19676;BME280;39539;52.202;9.876;2022-07-23T13:13:58;100982.88;;;26.72;45.62
19676;BME280;39539;52.202;9.876;2022-07-23T13:16:26;100991.31;;;26.62;46.79
19676;BME280;39539;52.202;9.876;2022-07-23T13:18:51;100988.06;;;26.60;46.79
19676;BME280;39539;52.202;9.876;2022-07-23T13:21:16;100989.84;;;26.78;46.15
19676;BME280;39539;52.202;9.876;2022-07-23T13:23:42;100996.53;;;26.95;46.00
19676;BME280;39539;52.202;9.876;2022-07-23T13:26:09;100996.28;;;26.82;45.07
19676;BME280;39539;52.202;9.876;2022-07-23T13:28:34;101001.22;;;26.80;45.65
19676;BME280;39539;52.202;9.876;2022-07-23T13:31:00;100984.06;;;26.80;45.76